createdAt,value
2019-02-09T00:00:01.066Z,971.92
2019-02-09T00:01:00.980Z,971.92
2019-02-09T00:02:00.900Z,971.92
2019-02-09T00:03:00.819Z,971.98
2019-02-09T00:04:00.727Z,972.01
2019-02-09T00:05:00.648Z,971.99
2019-02-09T00:06:00.568Z,971.99
2019-02-09T00:07:00.484Z,972.00
2019-02-09T00:08:00.402Z,972.01
2019-02-09T00:09:00.323Z,971.91
2019-02-09T00:10:00.240Z,971.98
2019-02-09T00:11:00.153Z,971.92
2019-02-09T00:12:00.069Z,971.91
2019-02-09T00:12:59.984Z,971.91
2019-02-09T00:13:59.902Z,971.88
2019-02-09T00:14:59.817Z,971.86
2019-02-09T00:15:59.735Z,971.87
2019-02-09T00:16:59.658Z,971.85
2019-02-09T00:17:59.568Z,971.80
2019-02-09T00:18:59.487Z,971.80
2019-02-09T00:19:59.405Z,971.73
2019-02-09T00:20:59.314Z,971.78
2019-02-09T00:21:59.243Z,971.77
2019-02-09T00:22:59.153Z,971.70
2019-02-09T00:23:59.078Z,971.69
2019-02-09T00:24:58.983Z,971.69
2019-02-09T00:25:58.905Z,971.70
2019-02-09T00:26:58.825Z,971.71
2019-02-09T00:27:58.739Z,971.66
2019-02-09T00:28:58.656Z,971.65
2019-02-09T00:29:58.568Z,971.71
2019-02-09T00:30:58.481Z,971.69
2019-02-09T00:31:58.406Z,971.68
2019-02-09T00:32:58.326Z,971.70
2019-02-09T00:33:58.237Z,971.65
2019-02-09T00:34:58.156Z,971.65
2019-02-09T00:35:58.072Z,971.57
2019-02-09T00:36:57.982Z,971.60
2019-02-09T00:37:57.905Z,971.54
2019-02-09T00:38:57.823Z,971.55
2019-02-09T00:39:57.739Z,971.50
2019-02-09T00:40:57.670Z,971.45
2019-02-09T00:41:57.572Z,971.51
2019-02-09T00:42:57.496Z,971.48
2019-02-09T00:43:57.406Z,971.48
2019-02-09T00:44:57.441Z,971.50
2019-02-09T00:45:57.239Z,971.56
2019-02-09T00:46:57.156Z,971.53
2019-02-09T00:47:57.071Z,971.52
2019-02-09T00:48:56.989Z,971.53
2019-02-09T00:49:56.903Z,971.55
2019-02-09T00:50:56.822Z,971.51
2019-02-09T00:51:56.741Z,971.54
2019-02-09T00:52:56.657Z,971.51
2019-02-09T00:53:56.575Z,971.44
2019-02-09T00:54:56.497Z,971.45
2019-02-09T00:55:56.408Z,971.42
2019-02-09T00:56:56.317Z,971.36
2019-02-09T00:57:56.239Z,971.36
2019-02-09T00:58:56.156Z,971.34
2019-02-09T00:59:56.081Z,971.34
2019-02-09T01:00:55.988Z,971.29
2019-02-09T01:01:55.899Z,971.28
2019-02-09T01:02:55.823Z,971.29
2019-02-09T01:03:55.744Z,971.33
2019-02-09T01:04:55.664Z,971.30
2019-02-09T01:05:55.574Z,971.29
2019-02-09T01:06:55.490Z,971.28
2019-02-09T01:07:55.408Z,971.27
2019-02-09T01:08:55.326Z,971.23
2019-02-09T01:09:55.235Z,971.22
2019-02-09T01:10:55.159Z,971.26
2019-02-09T01:11:55.077Z,971.22
2019-02-09T01:12:54.999Z,971.18
2019-02-09T01:13:54.907Z,971.16
2019-02-09T01:14:54.820Z,971.14
2019-02-09T01:15:54.742Z,971.14
2019-02-09T01:16:54.654Z,971.18
2019-02-09T01:17:54.577Z,971.18
2019-02-09T01:18:54.491Z,971.19
2019-02-09T01:19:54.412Z,971.15
2019-02-09T01:20:54.323Z,971.19
2019-02-09T01:21:54.247Z,971.20
2019-02-09T01:22:54.158Z,971.20
2019-02-09T01:23:54.075Z,971.18
2019-02-09T01:24:53.990Z,971.17
2019-02-09T01:25:53.908Z,971.16
2019-02-09T01:26:53.826Z,971.15
2019-02-09T01:27:53.752Z,971.22
2019-02-09T01:28:53.655Z,971.24
2019-02-09T01:29:53.576Z,971.23
2019-02-09T01:30:53.491Z,971.22
2019-02-09T01:31:53.406Z,971.17
2019-02-09T01:32:53.331Z,971.12
2019-02-09T01:33:53.243Z,971.11
2019-02-09T01:34:53.157Z,971.16
2019-02-09T01:35:53.129Z,971.20
2019-02-09T01:36:52.990Z,971.19
2019-02-09T01:37:52.908Z,971.18
2019-02-09T01:38:52.824Z,971.22
2019-02-09T01:39:52.739Z,971.18
2019-02-09T01:40:52.657Z,971.14
2019-02-09T01:41:52.574Z,971.13
2019-02-09T01:42:52.495Z,971.15
2019-02-09T01:43:52.410Z,971.12
2019-02-09T01:44:52.322Z,971.12
2019-02-09T01:45:52.240Z,971.12
2019-02-09T01:46:52.159Z,971.07
2019-02-09T01:47:52.074Z,971.06
2019-02-09T01:48:52.009Z,971.03
2019-02-09T01:49:51.911Z,971.02
2019-02-09T01:50:51.823Z,971.03
2019-02-09T01:51:51.745Z,971.06
2019-02-09T01:52:51.659Z,971.07
2019-02-09T01:53:51.575Z,971.07
2019-02-09T01:54:51.491Z,971.09
2019-02-09T01:55:51.407Z,971.05
2019-02-09T01:56:51.324Z,971.05
2019-02-09T01:57:51.243Z,971.03
2019-02-09T01:58:51.159Z,971.04
2019-02-09T01:59:51.077Z,971.04
2019-02-09T02:00:50.994Z,971.01
2019-02-09T02:01:50.910Z,970.98
2019-02-09T02:02:50.827Z,970.98
2019-02-09T02:03:50.752Z,970.94
2019-02-09T02:04:50.659Z,970.92
2019-02-09T02:05:50.576Z,970.92
2019-02-09T02:06:50.491Z,970.90
2019-02-09T02:07:50.411Z,970.91
2019-02-09T02:08:50.326Z,970.86
2019-02-09T02:09:50.241Z,970.88
2019-02-09T02:10:50.160Z,970.86
2019-02-09T02:11:50.074Z,970.85
2019-02-09T02:12:49.996Z,970.83
2019-02-09T02:13:49.907Z,970.77
2019-02-09T02:14:49.825Z,970.73
2019-02-09T02:15:49.743Z,970.78
2019-02-09T02:16:49.655Z,970.74
2019-02-09T02:17:49.572Z,970.74
2019-02-09T02:18:49.493Z,970.66
2019-02-09T02:19:49.405Z,970.67
2019-02-09T02:20:49.323Z,970.63
2019-02-09T02:21:49.260Z,970.58
2019-02-09T02:22:49.154Z,970.65
2019-02-09T02:23:49.073Z,970.64
2019-02-09T02:24:48.990Z,970.56
2019-02-09T02:25:48.908Z,970.51
2019-02-09T02:26:48.822Z,970.47
2019-02-09T02:27:48.739Z,970.43
2019-02-09T02:28:48.655Z,970.44
2019-02-09T02:29:48.573Z,970.43
2019-02-09T02:30:48.490Z,970.47
2019-02-09T02:31:48.404Z,970.46
2019-02-09T02:32:48.321Z,970.45
2019-02-09T02:33:48.245Z,970.46
2019-02-09T02:34:48.151Z,970.43
2019-02-09T02:35:48.071Z,970.37
2019-02-09T02:36:47.984Z,970.40
2019-02-09T02:37:47.901Z,970.37
2019-02-09T02:38:47.812Z,970.39
2019-02-09T02:39:47.730Z,970.35
2019-02-09T02:40:47.648Z,970.38
2019-02-09T02:41:47.572Z,970.35
2019-02-09T02:42:47.478Z,970.31
2019-02-09T02:43:47.401Z,970.34
2019-02-09T02:44:47.317Z,970.23
2019-02-09T02:45:47.231Z,970.23
2019-02-09T02:46:47.148Z,970.21
2019-02-09T02:47:47.074Z,970.17
2019-02-09T02:48:46.989Z,970.13
2019-02-09T02:49:46.898Z,970.13
2019-02-09T02:50:46.812Z,970.09
2019-02-09T02:51:46.729Z,970.11
2019-02-09T02:52:46.648Z,970.11
2019-02-09T02:53:46.574Z,970.06
2019-02-09T02:54:46.477Z,970.02
2019-02-09T02:55:46.394Z,969.98
2019-02-09T02:56:46.309Z,969.93
2019-02-09T02:57:46.236Z,969.86
2019-02-09T02:58:46.142Z,969.87
2019-02-09T02:59:46.056Z,969.82
2019-02-09T03:00:45.988Z,969.85
2019-02-09T03:01:45.890Z,969.87
2019-02-09T03:02:45.808Z,969.89
2019-02-09T03:03:45.720Z,969.87
2019-02-09T03:04:45.640Z,969.86
2019-02-09T03:05:45.552Z,969.87
2019-02-09T03:06:45.475Z,969.84
2019-02-09T03:07:45.386Z,969.84
2019-02-09T03:08:45.303Z,969.87
2019-02-09T03:09:45.217Z,969.85
2019-02-09T03:10:45.135Z,969.83
2019-02-09T03:11:45.051Z,969.81
2019-02-09T03:12:44.972Z,969.78
2019-02-09T03:13:44.883Z,969.80
2019-02-09T03:14:44.803Z,969.75
2019-02-09T03:15:44.719Z,969.79
2019-02-09T03:16:44.626Z,969.78
2019-02-09T03:17:44.560Z,969.77
2019-02-09T03:18:44.475Z,969.83
2019-02-09T03:19:44.383Z,969.79
2019-02-09T03:20:44.302Z,969.76
2019-02-09T03:21:44.217Z,969.76
2019-02-09T03:22:44.131Z,969.73
2019-02-09T03:23:44.048Z,969.76
2019-02-09T03:24:43.965Z,969.73
2019-02-09T03:25:43.895Z,969.71
2019-02-09T03:26:43.800Z,969.74
2019-02-09T03:27:43.714Z,969.75
2019-02-09T03:28:43.626Z,969.77
2019-02-09T03:29:43.542Z,969.76
2019-02-09T03:30:47.884Z,969.76
2019-02-09T03:31:43.382Z,969.73
2019-02-09T03:32:43.290Z,969.73
2019-02-09T03:33:43.305Z,969.77
2019-02-09T03:34:43.128Z,969.71
2019-02-09T03:35:43.041Z,969.75
2019-02-09T03:36:42.961Z,969.71
2019-02-09T03:37:42.875Z,969.73
2019-02-09T03:38:42.790Z,969.67
2019-02-09T03:39:42.710Z,969.70
2019-02-09T03:40:42.623Z,969.66
2019-02-09T03:41:42.542Z,969.74
2019-02-09T03:42:42.458Z,969.70
2019-02-09T03:43:42.377Z,969.68
2019-02-09T03:44:42.289Z,969.65
2019-02-09T03:45:42.203Z,969.69
2019-02-09T03:46:42.131Z,969.76
2019-02-09T03:47:42.051Z,969.75
2019-02-09T03:48:41.955Z,969.71
2019-02-09T03:49:41.868Z,969.71
2019-02-09T03:50:41.790Z,969.67
2019-02-09T03:51:41.708Z,969.70
2019-02-09T03:52:41.618Z,969.67
2019-02-09T03:53:41.537Z,969.68
2019-02-09T03:54:41.451Z,969.67
2019-02-09T03:55:41.373Z,969.75
2019-02-09T03:56:41.297Z,969.76
2019-02-09T03:57:41.198Z,969.76
2019-02-09T03:58:41.121Z,969.81
2019-02-09T03:59:41.041Z,969.78
2019-02-09T04:00:40.955Z,969.79
2019-02-09T04:01:40.869Z,969.82
2019-02-09T04:02:40.799Z,969.89
2019-02-09T04:03:40.704Z,969.93
2019-02-09T04:04:40.617Z,969.95
2019-02-09T04:05:40.538Z,969.93
2019-02-09T04:06:40.454Z,969.91
2019-02-09T04:07:40.368Z,969.97
2019-02-09T04:08:40.283Z,970.01
2019-02-09T04:09:40.202Z,970.04
2019-02-09T04:10:40.133Z,970.07
2019-02-09T04:11:40.040Z,970.15
2019-02-09T04:12:39.953Z,970.15
2019-02-09T04:13:39.872Z,970.15
2019-02-09T04:14:39.794Z,970.26
2019-02-09T04:15:39.698Z,970.22
2019-02-09T04:16:39.616Z,970.23
2019-02-09T04:17:39.532Z,970.17
2019-02-09T04:18:39.452Z,970.18
2019-02-09T04:19:39.370Z,970.13
2019-02-09T04:20:39.288Z,970.13
2019-02-09T04:21:39.199Z,970.05
2019-02-09T04:22:39.120Z,970.05
2019-02-09T04:23:39.036Z,970.08
2019-02-09T04:24:38.957Z,970.12
2019-02-09T04:25:38.872Z,970.16
2019-02-09T04:26:38.788Z,970.09
2019-02-09T04:27:38.707Z,970.07
2019-02-09T04:28:38.619Z,970.06
2019-02-09T04:29:38.540Z,970.04
2019-02-09T04:30:38.450Z,970.04
2019-02-09T04:31:38.375Z,970.04
2019-02-09T04:32:38.287Z,970.06
2019-02-09T04:33:38.204Z,970.12
2019-02-09T04:34:38.124Z,970.12
2019-02-09T04:35:38.038Z,970.15
2019-02-09T04:36:37.956Z,970.16
2019-02-09T04:37:37.875Z,970.17
2019-02-09T04:38:37.792Z,970.21
2019-02-09T04:39:37.708Z,970.27
2019-02-09T04:40:37.623Z,970.34
2019-02-09T04:41:37.551Z,970.43
2019-02-09T04:42:37.459Z,970.45
2019-02-09T04:43:37.421Z,970.45
2019-02-09T04:44:37.291Z,970.44
2019-02-09T04:45:37.208Z,970.46
2019-02-09T04:46:37.122Z,970.47
2019-02-09T04:47:37.044Z,970.53
2019-02-09T04:48:36.973Z,970.61
2019-02-09T04:49:36.881Z,970.65
2019-02-09T04:50:36.793Z,970.68
2019-02-09T04:51:36.712Z,970.68
2019-02-09T04:52:36.625Z,970.70
2019-02-09T04:53:36.542Z,970.64
2019-02-09T04:54:36.460Z,970.63
2019-02-09T04:55:36.378Z,970.71
2019-02-09T04:56:36.295Z,970.73
2019-02-09T04:57:36.205Z,970.72
2019-02-09T04:58:36.128Z,970.69
2019-02-09T04:59:36.045Z,970.65
2019-02-09T05:00:35.962Z,970.69
2019-02-09T05:01:35.886Z,970.72
2019-02-09T05:02:35.798Z,970.74
2019-02-09T05:03:35.717Z,970.75
2019-02-09T05:04:35.634Z,970.80
2019-02-09T05:05:35.547Z,970.81
2019-02-09T05:06:35.465Z,970.80
2019-02-09T05:07:35.382Z,970.84
2019-02-09T05:08:35.297Z,970.89
2019-02-09T05:09:35.214Z,970.87
2019-02-09T05:10:35.133Z,970.79
2019-02-09T05:11:35.050Z,970.76
2019-02-09T05:12:34.973Z,970.76
2019-02-09T05:13:34.881Z,970.76
2019-02-09T05:14:34.810Z,970.73
2019-02-09T05:15:34.717Z,970.67
2019-02-09T05:16:34.630Z,970.73
2019-02-09T05:17:34.553Z,970.89
2019-02-09T05:18:34.471Z,970.89
2019-02-09T05:19:34.379Z,970.86
2019-02-09T05:20:34.306Z,970.83
2019-02-09T05:21:34.220Z,970.83
2019-02-09T05:22:34.143Z,970.79
2019-02-09T05:23:34.054Z,970.85
2019-02-09T05:24:33.974Z,970.93
2019-02-09T05:25:33.890Z,970.93
2019-02-09T05:26:33.810Z,970.92
2019-02-09T05:27:33.725Z,970.89
2019-02-09T05:28:33.641Z,970.81
2019-02-09T05:29:33.556Z,970.68
2019-02-09T05:30:33.476Z,970.56
2019-02-09T05:31:33.406Z,970.50
2019-02-09T05:32:33.310Z,970.63
2019-02-09T05:33:33.228Z,970.78
2019-02-09T05:34:33.145Z,970.72
2019-02-09T05:35:33.073Z,970.65
2019-02-09T05:36:32.981Z,970.65
2019-02-09T05:37:32.895Z,970.64
2019-02-09T05:38:32.816Z,970.64
2019-02-09T05:39:33.865Z,970.68
2019-02-09T05:40:32.646Z,970.67
2019-02-09T05:41:32.573Z,970.55
2019-02-09T05:42:32.484Z,970.57
2019-02-09T05:43:32.405Z,970.67
2019-02-09T05:44:32.314Z,970.69
2019-02-09T05:45:32.236Z,970.52
2019-02-09T05:46:32.154Z,970.49
2019-02-09T05:47:32.071Z,970.46
2019-02-09T05:48:31.990Z,970.73
2019-02-09T05:49:31.905Z,970.66
2019-02-09T05:50:31.825Z,970.51
2019-02-09T05:51:31.739Z,970.55
2019-02-09T05:52:31.660Z,970.63
2019-02-09T05:53:31.582Z,970.61
2019-02-09T05:54:31.496Z,970.76
2019-02-09T05:55:31.413Z,970.71
2019-02-09T05:56:31.331Z,970.66
2019-02-09T05:57:31.242Z,970.71
2019-02-09T05:58:31.162Z,970.67
2019-02-09T05:59:31.078Z,970.70
2019-02-09T06:00:31.046Z,970.73
2019-02-09T06:01:32.565Z,970.70
2019-02-09T06:02:30.851Z,970.72
2019-02-09T06:03:30.757Z,970.70
2019-02-09T06:04:30.677Z,970.73
2019-02-09T06:05:30.587Z,970.83
2019-02-09T06:06:30.504Z,970.88
2019-02-09T06:07:30.424Z,970.93
2019-02-09T06:08:30.341Z,970.95
2019-02-09T06:09:30.259Z,970.96
2019-02-09T06:10:30.176Z,970.92
2019-02-09T06:11:30.099Z,970.99
2019-02-09T06:12:30.008Z,971.03
2019-02-09T06:13:29.924Z,971.08
2019-02-09T06:14:29.843Z,971.11
2019-02-09T06:15:29.756Z,971.15
2019-02-09T06:16:30.867Z,971.15
2019-02-09T06:17:29.597Z,971.20
2019-02-09T06:18:29.516Z,971.11
2019-02-09T06:19:29.439Z,971.15
2019-02-09T06:20:29.350Z,971.07
2019-02-09T06:21:29.268Z,971.13
2019-02-09T06:22:29.184Z,971.24
2019-02-09T06:23:29.104Z,971.25
2019-02-09T06:24:29.023Z,971.19
2019-02-09T06:25:29.016Z,971.17
2019-02-09T06:26:28.869Z,971.21
2019-02-09T06:27:28.774Z,971.25
2019-02-09T06:28:28.690Z,971.24
2019-02-09T06:29:28.608Z,971.25
2019-02-09T06:30:28.527Z,971.23
2019-02-09T06:31:28.445Z,971.32
2019-02-09T06:32:28.363Z,971.28
2019-02-09T06:33:28.284Z,971.33
2019-02-09T06:34:28.202Z,971.38
2019-02-09T06:35:28.113Z,971.39
2019-02-09T06:36:28.032Z,971.37
2019-02-09T06:37:27.951Z,971.38
2019-02-09T06:38:27.870Z,971.44
2019-02-09T06:39:27.787Z,971.40
2019-02-09T06:40:27.704Z,971.47
2019-02-09T06:41:27.626Z,971.46
2019-02-09T06:42:27.537Z,971.44
2019-02-09T06:43:27.458Z,971.40
2019-02-09T06:44:27.381Z,971.51
2019-02-09T06:45:27.292Z,971.44
2019-02-09T06:46:27.212Z,971.43
2019-02-09T06:47:27.127Z,971.38
2019-02-09T06:48:27.049Z,971.37
2019-02-09T06:49:26.966Z,971.34
2019-02-09T06:50:26.880Z,971.52
2019-02-09T06:51:26.799Z,971.36
2019-02-09T06:52:26.713Z,971.38
2019-02-09T06:53:26.634Z,971.47
2019-02-09T06:54:26.553Z,971.46
2019-02-09T06:55:26.473Z,971.44
2019-02-09T06:56:26.404Z,971.45
2019-02-09T06:57:26.301Z,971.47
2019-02-09T06:58:26.224Z,971.40
2019-02-09T06:59:26.143Z,971.43
2019-02-09T07:00:26.052Z,971.46
2019-02-09T07:01:25.996Z,971.44
2019-02-09T07:02:25.901Z,971.53
2019-02-09T07:03:25.816Z,971.58
2019-02-09T07:04:25.733Z,971.54
2019-02-09T07:05:25.649Z,971.60
2019-02-09T07:06:25.572Z,971.63
2019-02-09T07:07:25.484Z,971.61
2019-02-09T07:08:25.402Z,971.62
2019-02-09T07:09:25.321Z,971.71
2019-02-09T07:10:25.236Z,971.66
2019-02-09T07:11:25.157Z,971.73
2019-02-09T07:12:25.075Z,971.73
2019-02-09T07:13:24.991Z,971.82
2019-02-09T07:14:24.904Z,971.70
2019-02-09T07:15:24.825Z,971.73
2019-02-09T07:16:24.751Z,971.75
2019-02-09T07:17:24.664Z,971.77
2019-02-09T07:18:24.575Z,971.77
2019-02-09T07:19:26.091Z,971.81
2019-02-09T07:20:24.418Z,971.85
2019-02-09T07:21:24.350Z,971.87
2019-02-09T07:22:24.253Z,971.78
2019-02-09T07:23:24.171Z,971.80
2019-02-09T07:24:24.090Z,971.82
2019-02-09T07:25:24.008Z,971.70
2019-02-09T07:26:23.928Z,971.77
2019-02-09T07:27:23.843Z,971.85
2019-02-09T07:28:23.761Z,971.92
2019-02-09T07:29:23.682Z,972.00
2019-02-09T07:30:23.597Z,971.91
2019-02-09T07:31:23.515Z,971.89
2019-02-09T07:32:23.436Z,971.90
2019-02-09T07:33:23.360Z,971.86
2019-02-09T07:34:23.276Z,971.95
2019-02-09T07:35:23.188Z,971.91
2019-02-09T07:36:23.110Z,971.88
2019-02-09T07:37:23.043Z,971.92
2019-02-09T07:38:22.942Z,971.93
2019-02-09T07:39:22.863Z,971.94
2019-02-09T07:40:22.781Z,972.00
2019-02-09T07:41:22.700Z,971.93
2019-02-09T07:42:22.617Z,972.03
2019-02-09T07:43:22.535Z,972.07
2019-02-09T07:44:22.462Z,972.08
2019-02-09T07:45:22.369Z,972.07
2019-02-09T07:46:22.293Z,972.02
2019-02-09T07:47:22.206Z,972.06
2019-02-09T07:48:22.124Z,972.14
2019-02-09T07:49:22.044Z,972.07
2019-02-09T07:50:21.961Z,972.15
2019-02-09T07:51:21.878Z,972.10
2019-02-09T07:52:21.796Z,972.07
2019-02-09T07:53:21.715Z,972.14
2019-02-09T07:54:21.635Z,972.09
2019-02-09T07:55:21.554Z,972.14
2019-02-09T07:56:21.473Z,972.10
2019-02-09T07:57:21.389Z,972.04
2019-02-09T07:58:21.314Z,972.08
2019-02-09T07:59:21.227Z,972.08
2019-02-09T08:00:21.145Z,972.07
2019-02-09T08:01:21.064Z,972.12
2019-02-09T08:02:20.982Z,972.03
2019-02-09T08:03:20.904Z,972.10
2019-02-09T08:04:20.819Z,972.07
2019-02-09T08:05:20.738Z,972.04
2019-02-09T08:06:20.649Z,972.06
2019-02-09T08:07:20.579Z,971.97
2019-02-09T08:08:20.492Z,971.98
2019-02-09T08:09:20.408Z,971.96
2019-02-09T08:10:20.334Z,971.97
2019-02-09T08:11:20.249Z,972.08
2019-02-09T08:12:20.163Z,972.01
2019-02-09T08:13:20.086Z,972.05
2019-02-09T08:14:20.006Z,972.07
2019-02-09T08:15:19.924Z,972.24
2019-02-09T08:16:19.844Z,972.24
2019-02-09T08:17:19.761Z,972.12
2019-02-09T08:18:19.679Z,972.13
2019-02-09T08:19:19.596Z,972.17
2019-02-09T08:20:19.515Z,972.13
2019-02-09T08:21:19.433Z,972.18
2019-02-09T08:22:19.353Z,972.25
2019-02-09T08:23:19.273Z,972.22
2019-02-09T08:24:19.191Z,972.26
2019-02-09T08:25:19.111Z,972.23
2019-02-09T08:26:19.019Z,972.29
2019-02-09T08:27:23.604Z,972.28
2019-02-09T08:28:18.862Z,972.31
2019-02-09T08:29:18.784Z,972.36
2019-02-09T08:30:19.275Z,972.40
2019-02-09T08:31:18.621Z,972.41
2019-02-09T08:32:18.532Z,972.39
2019-02-09T08:33:18.456Z,972.42
2019-02-09T08:34:18.384Z,972.40
2019-02-09T08:35:18.294Z,972.45
2019-02-09T08:36:18.212Z,972.43
2019-02-09T08:37:18.131Z,972.38
2019-02-09T08:38:18.050Z,972.41
2019-02-09T08:39:17.970Z,972.43
2019-02-09T08:40:17.888Z,972.38
2019-02-09T08:41:17.804Z,972.36
2019-02-09T08:42:17.721Z,972.36
2019-02-09T08:43:17.645Z,972.46
2019-02-09T08:44:17.555Z,972.41
2019-02-09T08:45:17.480Z,972.44
2019-02-09T08:46:17.396Z,972.40
2019-02-09T08:47:17.318Z,972.41
2019-02-09T08:48:17.236Z,972.47
2019-02-09T08:49:17.158Z,972.45
2019-02-09T08:50:17.074Z,972.46
2019-02-09T08:51:16.991Z,972.52
2019-02-09T08:52:16.912Z,972.46
2019-02-09T08:53:16.827Z,972.42
2019-02-09T08:54:16.748Z,972.47
2019-02-09T08:55:16.669Z,972.47
2019-02-09T08:56:16.587Z,972.47
2019-02-09T08:57:16.506Z,972.41
2019-02-09T08:58:16.427Z,972.44
2019-02-09T08:59:16.343Z,972.39
2019-02-09T09:00:16.265Z,972.44
2019-02-09T09:01:16.192Z,972.42
2019-02-09T09:02:20.613Z,972.45
2019-02-09T09:03:16.024Z,972.53
2019-02-09T09:04:15.942Z,972.48
2019-02-09T09:05:15.864Z,972.40
2019-02-09T09:06:15.781Z,972.42
2019-02-09T09:07:15.699Z,972.44
2019-02-09T09:08:15.617Z,972.50
2019-02-09T09:09:15.539Z,972.53
2019-02-09T09:10:15.459Z,972.58
2019-02-09T09:11:15.376Z,972.56
2019-02-09T09:12:15.298Z,972.45
2019-02-09T09:13:15.215Z,972.51
2019-02-09T09:14:15.133Z,972.48
2019-02-09T09:15:15.056Z,972.54
2019-02-09T09:16:14.972Z,972.54
2019-02-09T09:17:14.888Z,972.67
2019-02-09T09:18:14.810Z,972.59
2019-02-09T09:19:14.728Z,972.60
2019-02-09T09:20:14.648Z,972.58
2019-02-09T09:21:14.568Z,972.62
2019-02-09T09:22:14.489Z,972.62
2019-02-09T09:23:14.405Z,972.58
2019-02-09T09:24:14.344Z,972.55
2019-02-09T09:25:14.249Z,972.63
2019-02-09T09:26:14.169Z,972.61
2019-02-09T09:27:14.077Z,972.58
2019-02-09T09:28:14.003Z,972.63
2019-02-09T09:29:13.920Z,972.67
2019-02-09T09:30:13.839Z,972.71
2019-02-09T09:31:13.761Z,972.63
2019-02-09T09:32:13.679Z,972.66
2019-02-09T09:33:13.602Z,972.63
2019-02-09T09:34:13.519Z,972.57
2019-02-09T09:35:13.438Z,972.61
2019-02-09T09:36:13.357Z,972.60
2019-02-09T09:37:13.277Z,972.62
2019-02-09T09:38:13.197Z,972.64
2019-02-09T09:39:13.126Z,972.70
2019-02-09T09:40:13.044Z,972.67
2019-02-09T09:41:12.956Z,972.71
2019-02-09T09:42:12.876Z,972.74
2019-02-09T09:43:12.796Z,972.77
2019-02-09T09:44:12.717Z,972.77
2019-02-09T09:45:12.637Z,972.72
2019-02-09T09:46:12.554Z,972.68
2019-02-09T09:47:12.477Z,972.79
2019-02-09T09:48:12.392Z,972.71
2019-02-09T09:49:13.943Z,972.78
2019-02-09T09:50:12.240Z,972.86
2019-02-09T09:51:12.168Z,972.75
2019-02-09T09:52:12.075Z,972.79
2019-02-09T09:53:11.999Z,972.76
2019-02-09T09:54:11.916Z,972.80
2019-02-09T09:55:11.837Z,972.79
2019-02-09T09:56:11.761Z,972.79
2019-02-09T09:57:11.684Z,972.85
2019-02-09T09:58:11.604Z,972.75
2019-02-09T09:59:11.518Z,972.75
2019-02-09T10:00:11.436Z,972.78
2019-02-09T10:01:11.363Z,972.74
2019-02-09T10:02:11.295Z,972.82
2019-02-09T10:03:11.207Z,972.94
2019-02-09T10:04:11.121Z,972.88
2019-02-09T10:05:11.053Z,972.79
2019-02-09T10:06:11.013Z,972.75
2019-02-09T10:07:11.013Z,972.92
2019-02-09T10:08:10.826Z,972.87
2019-02-09T10:09:10.733Z,972.88
2019-02-09T10:10:10.669Z,972.86
2019-02-09T10:11:10.573Z,972.85
2019-02-09T10:12:10.542Z,972.71
2019-02-09T10:13:10.418Z,972.86
2019-02-09T10:14:10.340Z,972.71
2019-02-09T10:15:10.315Z,972.76
2019-02-09T10:16:10.178Z,972.70
2019-02-09T10:17:10.101Z,972.87
2019-02-09T10:18:10.032Z,972.87
2019-02-09T10:19:09.944Z,972.80
2019-02-09T10:20:09.887Z,972.86
2019-02-09T10:21:09.782Z,972.79
2019-02-09T10:22:09.714Z,972.85
2019-02-09T10:23:09.635Z,972.92
2019-02-09T10:24:09.569Z,972.91
2019-02-09T10:25:09.578Z,972.92
2019-02-09T10:26:09.406Z,972.95
2019-02-09T10:27:09.331Z,972.92
2019-02-09T10:28:09.237Z,973.01
2019-02-09T10:29:09.162Z,972.88
2019-02-09T10:30:09.101Z,972.88
2019-02-09T10:31:09.000Z,973.02
2019-02-09T10:32:08.928Z,972.93
2019-02-09T10:33:08.850Z,972.86
2019-02-09T10:34:08.773Z,972.93
2019-02-09T10:35:08.694Z,972.98
2019-02-09T10:36:08.614Z,972.95
2019-02-09T10:37:08.534Z,972.89
2019-02-09T10:38:08.461Z,972.98
2019-02-09T10:39:08.394Z,972.94
2019-02-09T10:40:08.301Z,972.96
2019-02-09T10:41:08.228Z,973.04
2019-02-09T10:42:08.150Z,973.05
2019-02-09T10:43:08.064Z,973.06
2019-02-09T10:44:07.991Z,973.13
2019-02-09T10:45:07.911Z,973.08
2019-02-09T10:46:07.838Z,973.05
2019-02-09T10:47:07.758Z,973.05
2019-02-09T10:48:07.686Z,973.01
2019-02-09T10:49:07.600Z,973.03
2019-02-09T10:50:07.525Z,973.14
2019-02-09T10:51:07.444Z,973.08
2019-02-09T10:52:07.367Z,973.17
2019-02-09T10:53:07.292Z,973.21
2019-02-09T10:54:07.211Z,973.19
2019-02-09T10:55:07.132Z,973.18
2019-02-09T10:56:07.056Z,973.11
2019-02-09T10:57:06.984Z,973.27
2019-02-09T10:58:06.903Z,973.33
2019-02-09T10:59:06.819Z,973.42
2019-02-09T11:00:06.741Z,973.18
2019-02-09T11:01:06.675Z,973.18
2019-02-09T11:02:06.593Z,973.28
2019-02-09T11:03:06.508Z,973.27
2019-02-09T11:04:06.437Z,973.23
2019-02-09T11:05:06.356Z,973.42
2019-02-09T11:06:06.285Z,973.44
2019-02-09T11:07:06.209Z,973.27
2019-02-09T11:08:06.124Z,973.39
2019-02-09T11:09:06.045Z,973.36
2019-02-09T11:10:05.970Z,973.35
2019-02-09T11:11:05.905Z,973.42
2019-02-09T11:12:05.815Z,973.36
2019-02-09T11:13:05.739Z,973.24
2019-02-09T11:14:05.661Z,973.39
2019-02-09T11:15:05.584Z,973.45
2019-02-09T11:16:05.506Z,973.48
2019-02-09T11:17:05.427Z,973.46
2019-02-09T11:18:05.354Z,973.42
2019-02-09T11:19:05.272Z,973.41
2019-02-09T11:20:05.195Z,973.44
2019-02-09T11:21:05.127Z,973.45
2019-02-09T11:22:05.039Z,973.44
2019-02-09T11:23:04.973Z,973.49
2019-02-09T11:24:04.886Z,973.48
2019-02-09T11:25:04.802Z,973.32
2019-02-09T11:26:04.730Z,973.28
2019-02-09T11:27:04.653Z,973.29
2019-02-09T11:28:04.572Z,973.30
2019-02-09T11:29:04.494Z,973.22
2019-02-09T11:30:04.418Z,973.24
2019-02-09T11:31:04.337Z,973.40
2019-02-09T11:32:04.266Z,973.29
2019-02-09T11:33:04.757Z,973.24
2019-02-09T11:34:04.103Z,973.22
2019-02-09T11:35:04.028Z,973.24
2019-02-09T11:36:03.950Z,973.18
2019-02-09T11:37:03.870Z,973.22
2019-02-09T11:38:03.794Z,973.14
2019-02-09T11:39:03.759Z,973.20
2019-02-09T11:40:03.636Z,973.17
2019-02-09T11:41:03.560Z,973.13
2019-02-09T11:42:03.481Z,973.13
2019-02-09T11:43:03.400Z,973.22
2019-02-09T11:44:03.327Z,973.20
2019-02-09T11:45:03.249Z,973.23
2019-02-09T11:46:03.170Z,973.19
2019-02-09T11:47:03.127Z,973.22
2019-02-09T11:48:03.012Z,973.21
2019-02-09T11:49:02.936Z,973.14
2019-02-09T11:50:02.857Z,973.17
2019-02-09T11:51:02.806Z,973.14
2019-02-09T11:52:02.700Z,973.10
2019-02-09T11:53:02.626Z,973.11
2019-02-09T11:54:02.543Z,973.06
2019-02-09T11:55:02.471Z,973.11
2019-02-09T11:56:02.387Z,973.14
2019-02-09T11:57:02.309Z,973.12
2019-02-09T11:58:02.234Z,973.07
2019-02-09T11:59:02.157Z,973.13
2019-02-09T12:00:02.068Z,973.13
2019-02-09T12:01:01.995Z,973.14
2019-02-09T12:02:01.916Z,973.12
2019-02-09T12:03:08.422Z,973.11
2019-02-09T12:04:01.767Z,973.13
2019-02-09T12:05:01.685Z,973.16
2019-02-09T12:06:01.609Z,973.16
2019-02-09T12:07:01.532Z,973.21
2019-02-09T12:08:01.454Z,973.21
2019-02-09T12:09:01.377Z,973.20
2019-02-09T12:10:01.295Z,973.24
2019-02-09T12:11:01.217Z,973.23
2019-02-09T12:12:01.142Z,973.24
2019-02-09T12:13:01.064Z,973.26
2019-02-09T12:14:00.983Z,973.29
2019-02-09T12:15:00.909Z,973.10
2019-02-09T12:16:00.824Z,973.10
2019-02-09T12:17:00.747Z,973.12
2019-02-09T12:18:00.671Z,973.16
2019-02-09T12:19:00.628Z,973.11
2019-02-09T12:20:00.515Z,973.19
2019-02-09T12:21:00.432Z,973.17
2019-02-09T12:22:00.361Z,973.18
2019-02-09T12:23:00.282Z,973.36
2019-02-09T12:24:00.197Z,973.39
2019-02-09T12:25:00.286Z,973.31
2019-02-09T12:26:00.050Z,973.22
2019-02-09T12:26:59.970Z,973.26